DLL weather

Baraboo Wisconsin Dells Airport
Baraboo, Wisconsin, United States

Public forecast

Using degrees Fahrenheit for public forecast. Weather courtesy of forecast.io.

METAR (pilot weather report)

Retrieved 2019/05/25 04:35 UTC (0 seconds ago):

KDLL 250435Z AUTO 18006KT 7SM SCT009 SCT080 BKN100 20/18 A2982 RMK AO2 LTG DSNT SE AND SW T01960183

TAF (pilot weather forecast)

Forecast is more than 12 hours old.

Closest forecast is Dane County Regional Truax Field, 29.8 nm (55.1 km) SE. Retrieved 2019/05/24 00:24 UTC (1 day ago):

TAF KMSN 242323Z 2500/2524 16012KT P6SM FEW100 BKN250 FM250200 14007KT 6SM SHRA VCTS OVC050CB WS020/21035KT FM250500 18006KT 6SM SHRA VCTS FEW025 OVC050CB FM250700 21007KT P6SM VCSH OVC025 FM251400 23009KT P6SM BKN040 FM251900 24010G18KT P6SM FEW250